SCPB weather

Puelo Bajo Airport
Puelo Bajo, Los Lagos Region, Chile

Public forecast

Using degrees Celsius for public forecast. Weather courtesy of forecast.io.

Closest aviation weather report (METAR) to Puelo Bajo Airport

Closest report is El Tepual Airport, 38.0 nm (70.4 km) WNW. Retrieved 2019/10/14 00:00 UTC (23 minutes ago):

SCTE 140000Z 17009KT CAVOK 11/05 Q1019 NOSIG

Closest aviation forecast (TAF) to Puelo Bajo Airport

Closest forecast is El Tepual Airport, 38.0 nm (70.4 km) WNW. Retrieved 2019-10-14 00:00 UTC (23 minutes ago):

TAF SCTE 132213Z 1400/1500 17010KT CAVOK TN08/1410Z TX18/1418Z BECMG 1408/1410 09010KT BECMG 1418/1420 03010KT